Horsham, United Kingdom
Current Conditions -  °F | °C
As of 1:20 AM on Monday 24 Nov 2014 (Local Time) from EGKK Reporting Station
Clear Clear  
Wind Chill: 37°   Ceiling: Unl
Heat Index: 37°   Visibility: 4mi
Dew Point: 37°   Wind: 2mph
Humidity: 100%   Direction: 240°WSW
Pressure: 30.21"   Gusts: NA
Location:  51.06°N, 0.33°W
Report Text: EGKK 240120Z 24002KT 6000 R08R/1400 NSC 03/03 Q1023
Loading
Personal Weather Stations






























Interactive Weather Map New forecast layout! Learn more

10-Day Weather Forecast

Advertisements
Track Severe Weather on mobile